Terminal Aerodrome Forecast
Issued by NWS

Home | Current Version | Previous Version | Text Only | Print | Product List | Glossary On
Versions: 1 2 3 4 5 6 7 8 9 10 11 12 13 14 15
000
FTUS42 KMHX 250500
TAFPGV
TAF
KPGV 250538Z 2506/2606 00000KT 1/2SM FG VV005
      TEMPO 2506/2509 3SM BR SCT005
     FM251300 29005KT P6SM SKC
      AMD LTD TO CLD VIS AND WIND=

USA.gov is the U.S. government's official web portal to all federal, state and local government web resources and services.